createdAt,value
2022-12-04T00:01:41.406Z,34.10
2022-12-04T00:04:11.340Z,33.90
2022-12-04T00:06:39.514Z,33.80
2022-12-04T00:09:16.463Z,33.70
2022-12-04T00:11:46.731Z,33.50
2022-12-04T00:14:19.162Z,34.20
2022-12-04T00:16:50.704Z,34.60
2022-12-04T00:19:20.639Z,34.60
2022-12-04T00:21:52.957Z,34.90
2022-12-04T00:24:29.984Z,34.60
2022-12-04T00:26:58.205Z,34.40
2022-12-04T00:29:27.741Z,34.30
2022-12-04T00:31:55.936Z,34.10
2022-12-04T00:34:24.075Z,33.90
2022-12-04T00:36:55.331Z,33.80
2022-12-04T00:39:23.524Z,33.70
2022-12-04T00:41:53.478Z,33.50
2022-12-04T00:44:21.638Z,34.00
2022-12-04T00:46:54.102Z,34.30
2022-12-04T00:49:27.661Z,34.60
2022-12-04T00:51:55.786Z,34.80
2022-12-04T00:54:27.754Z,35.10
2022-12-04T00:56:55.961Z,35.20
2022-12-04T00:59:24.120Z,35.00
2022-12-04T01:01:53.772Z,34.60
2022-12-04T01:04:22.063Z,34.40
2022-12-04T01:06:50.330Z,34.30
2022-12-04T01:09:18.911Z,34.10
2022-12-04T01:11:47.102Z,34.00
2022-12-04T01:14:15.306Z,33.80
2022-12-04T01:16:43.570Z,33.70
2022-12-04T01:19:13.455Z,34.00
2022-12-04T01:21:41.702Z,34.40
2022-12-04T01:24:10.197Z,34.60
2022-12-04T01:26:38.362Z,34.80
2022-12-04T01:29:06.526Z,35.10
2022-12-04T01:31:34.792Z,34.60
2022-12-04T01:34:03.077Z,34.30
2022-12-04T01:36:32.640Z,34.20
2022-12-04T01:39:01.413Z,34.10
2022-12-04T01:41:33.297Z,33.90
2022-12-04T01:44:22.605Z,33.80
2022-12-04T01:46:52.316Z,33.70
2022-12-04T01:49:22.187Z,33.70
2022-12-04T01:51:53.004Z,34.20
2022-12-04T01:54:23.209Z,34.60
2022-12-04T01:56:54.065Z,34.80
2022-12-04T01:59:23.792Z,35.00
2022-12-04T02:01:54.289Z,34.60
2022-12-04T02:04:22.571Z,35.10
2022-12-04T02:06:52.146Z,34.20
2022-12-04T02:09:26.219Z,34.10
2022-12-04T02:11:58.753Z,33.90
2022-12-04T02:14:31.072Z,33.80
2022-12-04T02:17:04.057Z,33.70
2022-12-04T02:20:02.246Z,33.60
2022-12-04T02:22:52.992Z,34.20
2022-12-04T02:25:25.120Z,34.50
2022-12-04T02:28:06.522Z,34.80
2022-12-04T02:30:34.715Z,35.00
2022-12-04T02:33:04.417Z,34.50
2022-12-04T02:35:34.508Z,34.30
2022-12-04T02:38:05.888Z,34.30
2022-12-04T02:40:50.796Z,34.10
2022-12-04T02:43:21.598Z,33.90
2022-12-04T02:45:52.706Z,33.80
2022-12-04T02:48:21.176Z,33.60
2022-12-04T02:50:50.791Z,33.70
2022-12-04T02:53:21.117Z,34.30
2022-12-04T02:55:51.434Z,34.50
2022-12-04T02:58:22.676Z,34.70
2022-12-04T03:00:50.932Z,35.00
2022-12-04T03:03:19.855Z,35.10
2022-12-04T03:05:57.577Z,35.30
2022-12-04T03:08:27.724Z,34.90
2022-12-04T03:10:57.967Z,34.60
2022-12-04T03:13:28.437Z,34.40
2022-12-04T03:15:59.662Z,34.20
2022-12-04T03:18:29.322Z,34.20
2022-12-04T03:20:59.547Z,34.00
2022-12-04T03:23:30.893Z,33.80
2022-12-04T03:26:02.506Z,33.80
2022-12-04T03:28:34.872Z,34.30
2022-12-04T03:31:05.397Z,34.40
2022-12-04T03:33:36.032Z,35.10
2022-12-04T03:36:07.376Z,35.00
2022-12-04T03:38:38.416Z,34.70
2022-12-04T03:41:08.032Z,34.80
2022-12-04T03:43:39.135Z,34.30
2022-12-04T03:46:10.652Z,34.10
2022-12-04T03:48:41.493Z,34.10
2022-12-04T03:51:13.262Z,33.90
2022-12-04T03:53:43.274Z,33.80
2022-12-04T03:56:13.035Z,33.60
2022-12-04T03:59:04.489Z,34.10
2022-12-04T04:01:34.997Z,34.30
2022-12-04T04:04:03.341Z,34.60
2022-12-04T04:06:33.245Z,34.90
2022-12-04T04:09:03.219Z,34.70
2022-12-04T04:11:33.000Z,34.50
2022-12-04T04:14:21.502Z,34.30
2022-12-04T04:17:08.576Z,34.10
2022-12-04T04:19:54.761Z,33.90
2022-12-04T04:22:40.808Z,33.80
2022-12-04T04:25:10.297Z,33.70
2022-12-04T04:27:41.520Z,33.60
2022-12-04T04:30:11.834Z,34.20
2022-12-04T04:32:42.335Z,34.40
2022-12-04T04:35:15.425Z,34.70
2022-12-04T04:37:48.986Z,34.90
2022-12-04T04:40:20.249Z,34.60
2022-12-04T04:42:50.582Z,34.40
2022-12-04T04:45:21.763Z,34.20
2022-12-04T04:47:51.678Z,34.10
2022-12-04T04:50:19.974Z,33.90
2022-12-04T04:52:50.397Z,33.80
2022-12-04T04:55:18.854Z,33.70
2022-12-04T04:57:47.140Z,34.20
2022-12-04T05:00:16.898Z,34.00
2022-12-04T05:02:46.742Z,34.30
2022-12-04T05:05:15.017Z,34.60
2022-12-04T05:07:43.268Z,34.80
2022-12-04T05:10:12.100Z,35.00
2022-12-04T05:12:40.273Z,35.10
2022-12-04T05:15:09.712Z,35.10
2022-12-04T05:17:37.957Z,34.70
2022-12-04T05:20:07.817Z,34.50
2022-12-04T05:22:36.867Z,34.30
2022-12-04T05:25:05.784Z,34.10
2022-12-04T05:27:34.036Z,34.00
2022-12-04T05:30:03.320Z,33.80
2022-12-04T05:32:31.551Z,33.70
2022-12-04T05:34:59.704Z,33.90
2022-12-04T05:37:29.377Z,34.20
2022-12-04T05:39:57.856Z,34.60
2022-12-04T05:42:26.298Z,34.90
2022-12-04T05:44:55.660Z,35.00
2022-12-04T05:47:23.863Z,34.60
2022-12-04T05:49:52.351Z,34.40
2022-12-04T05:52:20.610Z,34.20
2022-12-04T05:54:50.239Z,34.20
2022-12-04T05:57:18.515Z,33.90
2022-12-04T05:59:46.652Z,33.80
2022-12-04T06:02:14.931Z,33.70
2022-12-04T06:04:43.162Z,33.60
2022-12-04T06:07:11.626Z,34.10
2022-12-04T06:09:39.855Z,34.50
2022-12-04T06:12:09.498Z,34.70
2022-12-04T06:14:39.766Z,34.90
2022-12-04T06:17:08.344Z,34.70
2022-12-04T06:19:36.573Z,34.50
2022-12-04T06:22:04.816Z,34.20
2022-12-04T06:24:33.053Z,34.10
2022-12-04T06:29:50.888Z,33.80
2022-12-04T06:32:21.721Z,33.80
2022-12-04T06:35:09.590Z,33.60
2022-12-04T06:37:37.816Z,34.10
2022-12-04T06:40:07.545Z,34.30
2022-12-04T06:42:35.747Z,34.70
2022-12-04T06:45:06.622Z,34.90
2022-12-04T06:47:36.160Z,34.80
2022-12-04T06:50:04.867Z,34.50
2022-12-04T06:52:34.157Z,34.30
2022-12-04T06:55:02.409Z,34.10
2022-12-04T06:57:30.666Z,33.90
2022-12-04T06:59:58.953Z,33.80
2022-12-04T07:02:30.341Z,33.60
2022-12-04T07:04:58.876Z,33.60
2022-12-04T07:07:27.230Z,33.90
2022-12-04T07:09:55.856Z,34.20
2022-12-04T07:12:27.284Z,34.50
2022-12-04T07:14:55.654Z,34.80
2022-12-04T07:17:24.115Z,34.90
2022-12-04T07:20:03.231Z,35.10
2022-12-04T07:22:31.562Z,35.20
2022-12-04T07:24:59.828Z,34.70
2022-12-04T07:27:30.505Z,34.50
2022-12-04T07:29:58.749Z,34.30
2022-12-04T07:32:48.588Z,34.20
2022-12-04T07:35:28.035Z,34.00
2022-12-04T07:38:49.905Z,33.80
2022-12-04T07:41:36.132Z,33.70
2022-12-04T07:44:05.066Z,34.00
2022-12-04T07:46:33.400Z,34.50
2022-12-04T07:49:16.809Z,34.80
2022-12-04T07:51:52.174Z,35.00
2022-12-04T07:55:20.145Z,34.80
2022-12-04T08:01:30.166Z,34.20
2022-12-04T08:03:59.486Z,34.00
2022-12-04T08:06:31.713Z,33.80
2022-12-04T08:09:14.346Z,33.80
2022-12-04T08:11:45.089Z,33.70
2022-12-04T08:14:13.649Z,33.90
2022-12-04T08:16:52.487Z,34.30
2022-12-04T08:19:32.333Z,34.60
2022-12-04T08:22:00.869Z,34.90
2022-12-04T08:24:30.821Z,34.80
2022-12-04T08:27:07.109Z,34.50
2022-12-04T08:29:36.545Z,34.30
2022-12-04T08:32:05.177Z,34.10
2022-12-04T08:34:33.669Z,33.90
2022-12-04T08:37:02.817Z,33.90
2022-12-04T08:39:45.438Z,33.70
2022-12-04T08:42:28.030Z,33.70
2022-12-04T08:45:16.378Z,33.90
2022-12-04T08:47:52.203Z,34.20
2022-12-04T08:50:21.908Z,34.70
2022-12-04T08:52:50.242Z,35.00
2022-12-04T08:55:20.109Z,34.80
2022-12-04T08:57:48.604Z,34.50
2022-12-04T09:00:17.388Z,34.30
2022-12-04T09:02:46.700Z,34.20
2022-12-04T09:05:17.305Z,33.90
2022-12-04T09:07:45.778Z,33.90
2022-12-04T09:10:15.276Z,33.70
2022-12-04T09:13:03.984Z,33.60
2022-12-04T09:15:32.434Z,33.80
2022-12-04T09:18:00.727Z,34.20
2022-12-04T09:20:28.994Z,34.50
2022-12-04T09:23:14.800Z,34.80
2022-12-04T09:25:45.456Z,35.00
2022-12-04T09:28:15.201Z,35.20
2022-12-04T09:30:43.642Z,35.20
2022-12-04T09:33:26.139Z,34.70
2022-12-04T09:35:54.360Z,34.50
2022-12-04T09:38:22.653Z,34.20
2022-12-04T09:40:54.011Z,34.10
2022-12-04T09:43:30.811Z,34.00
2022-12-04T09:46:02.284Z,33.80
2022-12-04T09:48:44.578Z,33.70
2022-12-04T09:51:29.385Z,33.90
2022-12-04T09:54:00.559Z,34.20
2022-12-04T09:56:30.445Z,34.60
2022-12-04T09:59:03.688Z,35.00
2022-12-04T10:01:45.689Z,34.90
2022-12-04T10:04:14.106Z,34.50
2022-12-04T10:06:44.679Z,34.20
2022-12-04T10:09:22.273Z,34.20
2022-12-04T10:11:53.942Z,34.00
2022-12-04T10:14:59.686Z,33.80
2022-12-04T10:17:52.727Z,33.70
2022-12-04T10:20:52.935Z,33.50
2022-12-04T10:23:42.019Z,34.10
2022-12-04T10:26:40.855Z,34.40
2022-12-04T10:29:14.030Z,34.80
2022-12-04T10:32:18.407Z,34.90
2022-12-04T10:34:46.896Z,34.50
2022-12-04T10:37:41.158Z,34.30
2022-12-04T10:40:15.392Z,34.10
2022-12-04T10:42:58.809Z,33.90
2022-12-04T10:45:43.054Z,33.80
2022-12-04T10:48:21.303Z,33.70
2022-12-04T10:50:49.679Z,33.60
2022-12-04T10:53:18.136Z,34.00
2022-12-04T10:56:12.790Z,34.30
2022-12-04T10:58:57.756Z,34.60
2022-12-04T11:02:28.351Z,35.00
2022-12-04T11:04:59.217Z,34.70
2022-12-04T11:07:37.178Z,34.30
2022-12-04T11:10:23.736Z,34.20
2022-12-04T11:13:27.866Z,33.90
2022-12-04T11:16:25.683Z,33.80
2022-12-04T11:19:23.906Z,33.70
2022-12-04T11:22:23.573Z,33.60
2022-12-04T11:25:02.251Z,34.00
2022-12-04T11:30:49.198Z,34.60
2022-12-04T11:33:18.797Z,35.00
2022-12-04T11:35:54.963Z,35.10
2022-12-04T11:38:27.718Z,35.20
2022-12-04T11:41:34.570Z,34.70
2022-12-04T11:44:09.740Z,34.50
2022-12-04T11:47:17.063Z,34.20
2022-12-04T11:50:03.626Z,34.00
2022-12-04T11:53:13.057Z,33.90
2022-12-04T11:56:13.464Z,33.80
2022-12-04T12:06:12.511Z,34.60
2022-12-04T12:09:37.128Z,35.00
2022-12-04T12:19:55.610Z,34.10
2022-12-04T12:33:26.003Z,34.10
2022-12-04T12:36:14.319Z,34.60
2022-12-04T12:39:37.606Z,34.90
2022-12-04T12:50:19.213Z,34.10
2022-12-04T12:53:22.962Z,33.90
2022-12-04T12:56:24.427Z,33.60
2022-12-04T12:58:58.416Z,33.60
2022-12-04T13:01:33.936Z,33.90
2022-12-04T13:04:14.883Z,34.30
2022-12-04T13:06:44.294Z,34.70
2022-12-04T13:09:35.349Z,34.90
2022-12-04T13:12:06.930Z,34.70
2022-12-04T13:14:49.011Z,34.40
2022-12-04T13:17:18.821Z,34.20
2022-12-04T13:19:47.836Z,34.00
2022-12-04T13:22:18.009Z,33.80
2022-12-04T13:25:01.651Z,33.70
2022-12-04T13:27:36.969Z,33.60
2022-12-04T13:30:11.187Z,33.50
2022-12-04T13:33:13.294Z,33.90
2022-12-04T13:36:13.616Z,34.30
2022-12-04T13:38:47.337Z,34.50
2022-12-04T13:41:17.306Z,34.90
2022-12-04T13:44:12.807Z,35.20
2022-12-04T13:46:41.646Z,35.20
2022-12-04T13:49:26.594Z,34.60
2022-12-04T13:51:55.605Z,34.50
2022-12-04T13:54:32.439Z,34.30
2022-12-04T13:57:17.676Z,34.10
2022-12-04T14:00:07.405Z,33.90
2022-12-04T14:02:50.527Z,33.70
2022-12-04T14:05:47.964Z,33.60
2022-12-04T14:08:37.506Z,34.10
2022-12-04T14:11:07.990Z,34.40
2022-12-04T14:13:51.492Z,34.70
2022-12-04T14:16:27.011Z,35.00
2022-12-04T14:19:00.620Z,34.60
2022-12-04T14:21:42.336Z,34.50
2022-12-04T14:24:35.119Z,34.30
2022-12-04T14:27:36.336Z,34.00
2022-12-04T14:30:26.509Z,33.90
2022-12-04T14:33:07.039Z,33.70
2022-12-04T14:36:11.562Z,34.20
2022-12-04T14:38:41.772Z,33.80
2022-12-04T14:41:27.792Z,34.30
2022-12-04T14:43:55.978Z,34.60
2022-12-04T14:46:43.797Z,34.90
2022-12-04T14:49:35.788Z,34.70
2022-12-04T14:52:14.663Z,34.50
2022-12-04T14:55:08.745Z,34.30
2022-12-04T14:57:45.560Z,34.00
2022-12-04T15:00:39.479Z,33.90
2022-12-04T15:03:24.193Z,33.80
2022-12-04T15:05:53.898Z,33.70
2022-12-04T15:08:31.373Z,33.80
2022-12-04T15:11:19.804Z,34.00
2022-12-04T15:14:05.724Z,34.40
2022-12-04T15:16:34.245Z,34.70
2022-12-04T15:19:02.497Z,35.00
2022-12-04T15:21:39.947Z,34.50
2022-12-04T15:24:09.455Z,34.40
2022-12-04T15:26:39.862Z,34.10
2022-12-04T15:29:08.086Z,34.00
2022-12-04T15:31:39.442Z,33.80
2022-12-04T15:34:08.947Z,33.70
2022-12-04T15:36:43.895Z,33.60
2022-12-04T15:39:17.490Z,33.60
2022-12-04T15:41:45.848Z,34.10
2022-12-04T15:44:32.161Z,34.50
2022-12-04T15:47:21.227Z,34.70
2022-12-04T15:49:49.522Z,35.00
2022-12-04T15:52:20.037Z,35.20
2022-12-04T15:54:52.016Z,35.30
2022-12-04T15:57:23.947Z,34.80
2022-12-04T16:00:36.353Z,34.50
2022-12-04T16:03:24.813Z,34.40
2022-12-04T16:06:03.892Z,34.10
2022-12-04T16:08:57.022Z,34.00
2022-12-04T16:11:30.000Z,33.80
2022-12-04T16:14:07.214Z,33.60
2022-12-04T16:16:42.119Z,34.20
2022-12-04T16:19:11.120Z,34.50
2022-12-04T16:21:39.348Z,34.80
2022-12-04T16:24:12.817Z,35.00
2022-12-04T16:26:41.164Z,34.80
2022-12-04T16:29:09.469Z,34.50
2022-12-04T16:31:38.035Z,34.20
2022-12-04T16:34:06.278Z,34.20
2022-12-04T16:36:47.439Z,34.00
2022-12-04T16:39:16.955Z,33.90
2022-12-04T16:41:45.406Z,33.70
2022-12-04T16:44:15.911Z,33.60
2022-12-04T16:46:44.255Z,34.00
2022-12-04T16:49:12.758Z,34.40
2022-12-04T16:51:42.832Z,34.60
2022-12-04T16:54:14.129Z,34.90
2022-12-04T16:56:43.697Z,34.90
2022-12-04T16:59:13.855Z,34.50
2022-12-04T17:01:44.200Z,34.40
2022-12-04T17:04:12.680Z,34.10
2022-12-04T17:06:41.002Z,34.00
2022-12-04T17:09:09.801Z,33.90
2022-12-04T17:11:38.079Z,34.40
2022-12-04T17:14:08.116Z,33.60
2022-12-04T17:16:36.937Z,33.70
2022-12-04T17:19:05.108Z,34.30
2022-12-04T17:21:34.380Z,34.50
2022-12-04T17:24:02.476Z,34.80
2022-12-04T17:26:30.758Z,35.00
2022-12-04T17:28:58.875Z,34.60
2022-12-04T17:31:34.610Z,34.40
2022-12-04T17:34:02.866Z,34.20
2022-12-04T17:36:32.204Z,34.00
2022-12-04T17:39:02.030Z,33.90
2022-12-04T17:41:30.247Z,33.70
2022-12-04T17:44:00.603Z,33.60
2022-12-04T17:46:30.964Z,33.50
2022-12-04T17:49:17.101Z,34.00
2022-12-04T17:51:45.517Z,34.50
2022-12-04T17:54:25.043Z,34.60
2022-12-04T17:56:59.612Z,34.90
2022-12-04T17:59:28.086Z,35.10
2022-12-04T18:02:02.047Z,35.30
2022-12-04T18:04:32.230Z,34.80
2022-12-04T18:07:00.773Z,34.60
2022-12-04T18:09:30.091Z,34.30
2022-12-04T18:11:58.831Z,34.10
2022-12-04T18:14:33.090Z,34.00
2022-12-04T18:17:02.946Z,33.80
2022-12-04T18:19:33.178Z,33.70
2022-12-04T18:22:01.749Z,33.60
2022-12-04T18:24:30.371Z,34.00
2022-12-04T18:26:58.778Z,34.20
2022-12-04T18:29:27.984Z,34.70
2022-12-04T18:31:56.371Z,35.00
2022-12-04T18:34:24.951Z,34.80
2022-12-04T18:36:54.848Z,34.50
2022-12-04T18:40:06.830Z,34.30
2022-12-04T18:42:35.732Z,34.20
2022-12-04T18:45:10.500Z,34.00
2022-12-04T18:47:39.191Z,33.80
2022-12-04T18:50:08.427Z,33.70
2022-12-04T18:52:38.584Z,33.60
2022-12-04T18:55:10.135Z,34.10
2022-12-04T18:57:38.359Z,34.40
2022-12-04T19:00:07.967Z,34.70
2022-12-04T19:02:36.301Z,35.00
2022-12-04T19:05:07.448Z,34.80
2022-12-04T19:07:36.005Z,34.40
2022-12-04T19:10:11.037Z,34.90
2022-12-04T19:13:13.834Z,34.10
2022-12-04T19:16:11.135Z,34.00
2022-12-04T19:18:42.347Z,33.80
2022-12-04T19:21:10.868Z,33.70
2022-12-04T19:23:42.309Z,33.50
2022-12-04T19:26:13.066Z,34.10
2022-12-04T19:28:41.310Z,34.40
2022-12-04T19:31:16.202Z,34.60
2022-12-04T19:33:44.685Z,34.90
2022-12-04T19:36:15.385Z,34.60
2022-12-04T19:38:43.914Z,34.50
2022-12-04T19:41:25.852Z,34.20
2022-12-04T19:44:49.455Z,34.10
2022-12-04T19:47:19.948Z,34.00
2022-12-04T19:49:49.008Z,33.80
2022-12-04T19:59:56.650Z,34.20
2022-12-04T20:02:24.871Z,34.70
2022-12-04T20:04:55.494Z,34.90
2022-12-04T20:07:26.776Z,35.20
2022-12-04T20:09:59.606Z,35.20
2022-12-04T20:12:33.701Z,34.90
2022-12-04T20:15:03.180Z,34.60
2022-12-04T20:17:31.536Z,34.40
2022-12-04T20:19:59.849Z,34.30
2022-12-04T20:22:28.183Z,34.00
2022-12-04T20:24:56.239Z,34.00
2022-12-04T20:27:24.254Z,33.80
2022-12-04T20:29:52.400Z,33.70
2022-12-04T20:32:23.544Z,34.10
2022-12-04T20:34:53.211Z,34.50
2022-12-04T20:37:25.176Z,34.80
2022-12-04T20:39:53.266Z,35.00
2022-12-04T20:42:21.273Z,34.80
2022-12-04T20:44:53.730Z,34.60
2022-12-04T20:47:25.066Z,34.30
2022-12-04T20:49:56.360Z,34.20
2022-12-04T20:52:37.287Z,34.10
2022-12-04T20:55:09.555Z,33.90
2022-12-04T20:57:43.763Z,33.70
2022-12-04T21:00:13.238Z,33.60
2022-12-04T21:02:45.794Z,34.00
2022-12-04T21:05:18.482Z,34.30
2022-12-04T21:07:46.767Z,34.60
2022-12-04T21:10:18.794Z,34.90
2022-12-04T21:13:06.859Z,34.90
2022-12-04T21:15:52.521Z,34.50
2022-12-04T21:18:22.161Z,34.40
2022-12-04T21:20:51.516Z,34.10
2022-12-04T21:23:19.667Z,34.00
2022-12-04T21:25:50.252Z,33.80
2022-12-04T21:28:22.766Z,33.60
2022-12-04T21:30:50.840Z,33.60
2022-12-04T21:33:18.907Z,34.00
2022-12-04T21:35:48.315Z,34.30
2022-12-04T21:38:16.504Z,34.60
2022-12-04T21:40:44.558Z,34.80
2022-12-04T21:43:12.518Z,35.00
2022-12-04T21:45:40.527Z,34.60
2022-12-04T21:48:08.542Z,34.30
2022-12-04T21:50:36.543Z,34.20
2022-12-04T21:53:06.034Z,34.10
2022-12-04T21:55:34.116Z,33.90
2022-12-04T21:58:02.165Z,33.70
2022-12-04T22:00:30.289Z,33.60
2022-12-04T22:02:59.633Z,33.70
2022-12-04T22:05:27.743Z,34.10
2022-12-04T22:07:55.829Z,34.50
2022-12-04T22:10:25.810Z,34.80
2022-12-04T22:12:53.823Z,34.90
2022-12-04T22:15:21.885Z,35.20
2022-12-04T22:17:49.910Z,35.30
2022-12-04T22:20:18.119Z,35.00
2022-12-04T22:22:46.125Z,34.70
2022-12-04T22:25:14.891Z,34.50
2022-12-04T22:27:44.252Z,34.40
2022-12-04T22:30:13.520Z,34.10
2022-12-04T22:32:41.549Z,34.00
2022-12-04T22:35:10.472Z,33.80
2022-12-04T22:37:43.904Z,33.70
2022-12-04T22:40:13.395Z,34.00
2022-12-04T22:42:41.431Z,34.40
2022-12-04T22:45:11.188Z,34.70
2022-12-04T22:47:39.336Z,34.90
2022-12-04T22:50:08.767Z,35.00
2022-12-04T22:52:36.761Z,34.60
2022-12-04T22:55:05.155Z,34.40
2022-12-04T22:57:34.279Z,34.20
2022-12-04T23:00:02.308Z,34.10
2022-12-04T23:02:31.662Z,33.90
2022-12-04T23:04:59.766Z,33.80
2022-12-04T23:07:27.861Z,33.70
2022-12-04T23:09:56.198Z,33.70
2022-12-04T23:12:25.421Z,34.20
2022-12-04T23:14:53.463Z,34.60
2022-12-04T23:17:23.083Z,34.80
2022-12-04T23:19:52.437Z,35.00
2022-12-04T23:22:20.458Z,34.60
2022-12-04T23:24:48.547Z,34.40
2022-12-04T23:27:16.580Z,34.20
2022-12-04T23:29:53.145Z,34.10
2022-12-04T23:32:21.770Z,33.90
2022-12-04T23:34:49.785Z,33.80
2022-12-04T23:37:19.358Z,33.60
2022-12-04T23:39:47.365Z,33.60
2022-12-04T23:42:15.378Z,34.00
2022-12-04T23:44:43.388Z,34.50
2022-12-04T23:47:11.554Z,34.70
2022-12-04T23:49:39.620Z,34.90
2022-12-04T23:52:07.647Z,34.70
2022-12-04T23:54:37.739Z,34.50
2022-12-04T23:57:05.741Z,34.40
2022-12-04T23:59:33.753Z,34.10
